Time;durP1;ratioP1;P1;durP2;ratioP2;P2;SDS_P1;SDS_P2;PMS_P1;PMS_P2;Temp;Humidity;BMP_temperature;BMP_pressure;BME280_temperature;BME280_humidity;BME280_pressure;Samples;Min_cycle;Max_cycle;Signal;HPM_P1;HPM_P2
2022/04/30 00:02:15;;;;;;;9.23;8.43;;;19.10;1.00;;;;;;5042748;28;20098;-59
2022/04/30 00:04:50;;;;;;;12.52;8.93;;;19.20;1.00;;;;;;5032537;28;20026;-59
2022/04/30 00:07:19;;;;;;;11.48;8.35;;;19.20;1.00;;;;;;5039726;28;20037;-59
2022/04/30 00:09:46;;;;;;;10.77;8.68;;;19.20;1.00;;;;;;5052127;28;20052;-59
2022/04/30 00:12:12;;;;;;;8.88;7.95;;;19.10;1.00;;;;;;5050308;28;20495;-59
2022/04/30 00:14:39;;;;;;;10.13;8.35;;;19.10;1.00;;;;;;5052421;28;20079;-59
2022/04/30 00:17:06;;;;;;;12.95;9.23;;;19.00;1.00;;;;;;5050665;28;20033;-59
2022/04/30 00:19:33;;;;;;;9.93;8.45;;;19.10;1.00;;;;;;5065377;28;20029;-59
2022/04/30 00:21:58;;;;;;;9.88;8.88;;;19.10;1.00;;;;;;5051158;28;20398;-60
2022/04/30 00:24:26;;;;;;;10.98;9.02;;;19.10;1.00;;;;;;5051825;28;20104;-59
2022/04/30 00:26:52;;;;;;;13.77;9.07;;;19.10;1.00;;;;;;5047596;28;20486;-59
2022/04/30 00:29:18;;;;;;;13.23;10.00;;;19.10;1.00;;;;;;5051762;28;20478;-59
2022/04/30 00:31:44;;;;;;;10.57;9.40;;;19.10;1.00;;;;;;5044527;28;20040;-59
2022/04/30 00:34:10;;;;;;;11.88;10.35;;;19.10;1.00;;;;;;5035314;28;20025;-59
2022/04/30 00:36:36;;;;;;;11.48;9.95;;;19.10;1.00;;;;;;5038528;28;20080;-59
2022/04/30 00:39:03;;;;;;;13.50;10.18;;;19.00;1.00;;;;;;5042150;28;20084;-59
2022/04/30 00:41:36;;;;;;;11.15;9.18;;;19.00;1.00;;;;;;5033987;28;20053;-59
2022/04/30 00:44:02;;;;;;;10.25;9.20;;;19.00;1.00;;;;;;5038444;28;20049;-59
2022/04/30 00:46:28;;;;;;;11.45;9.35;;;19.00;1.00;;;;;;5049375;28;20047;-59
2022/04/30 00:48:54;;;;;;;10.40;9.15;;;18.90;1.00;;;;;;5049591;28;20075;-59
2022/04/30 00:51:22;;;;;;;10.18;8.15;;;19.00;1.00;;;;;;5047123;28;20033;-59
2022/04/30 00:53:51;;;;;;;11.38;9.70;;;18.80;1.00;;;;;;5048949;28;20021;-58
2022/04/30 00:56:27;;;;;;;10.68;9.57;;;18.90;1.00;;;;;;5041342;28;20025;-58
2022/04/30 00:58:55;;;;;;;16.05;9.95;;;18.80;1.00;;;;;;5051075;28;20040;-59
2022/04/30 01:01:22;;;;;;;11.15;8.75;;;18.80;1.00;;;;;;5055430;28;20092;-58
2022/04/30 01:03:48;;;;;;;12.48;9.35;;;18.80;1.00;;;;;;5054400;28;20059;-59
2022/04/30 01:06:15;;;;;;;10.23;8.90;;;18.90;1.00;;;;;;5054132;28;20064;-59
2022/04/30 01:08:41;;;;;;;12.40;9.88;;;18.80;1.00;;;;;;5049763;28;20074;-59
2022/04/30 01:11:07;;;;;;;14.98;10.18;;;18.90;1.00;;;;;;5054378;28;20037;-60
2022/04/30 01:13:35;;;;;;;12.15;9.45;;;18.70;1.00;;;;;;5054486;28;20036;-59
2022/04/30 01:16:06;;;;;;;13.63;9.70;;;18.80;1.00;;;;;;5055464;28;20163;-59
2022/04/30 01:18:36;;;;;;;12.23;9.88;;;18.80;1.00;;;;;;5053589;28;20033;-59
2022/04/30 01:21:11;;;;;;;10.77;9.68;;;18.80;1.00;;;;;;5054404;28;20117;-59
2022/04/30 01:23:41;;;;;;;14.25;9.88;;;18.90;1.00;;;;;;5042373;28;20025;-59
2022/04/30 01:26:09;;;;;;;11.55;9.70;;;18.80;1.00;;;;;;5047442;28;20064;-59
2022/04/30 01:28:35;;;;;;;10.70;9.60;;;18.80;1.00;;;;;;5053362;28;20090;-59
2022/04/30 01:31:01;;;;;;;11.82;9.18;;;18.70;1.00;;;;;;5054363;28;20048;-59
2022/04/30 01:38:59;;;;;;;11.57;10.38;;;18.70;1.00;;;;;;5053735;28;20062;-59
2022/04/30 01:41:25;;;;;;;11.77;9.38;;;18.80;1.00;;;;;;5054209;28;20416;-59
2022/04/30 01:43:51;;;;;;;17.63;9.95;;;18.80;1.00;;;;;;5053008;28;20045;-59
2022/04/30 01:46:17;;;;;;;14.07;10.65;;;18.70;1.00;;;;;;5052385;28;20158;-59
2022/04/30 01:48:45;;;;;;;13.73;9.63;;;18.70;1.00;;;;;;5052845;28;20123;-59
2022/04/30 01:51:13;;;;;;;11.18;9.95;;;18.70;1.00;;;;;;5052094;28;20025;-58
2022/04/30 01:53:40;;;;;;;11.27;9.48;;;18.70;1.00;;;;;;5067879;28;20461;-59
2022/04/30 01:56:05;;;;;;;11.32;9.68;;;18.70;1.00;;;;;;5069306;28;20025;-59
2022/04/30 01:58:31;;;;;;;11.38;9.45;;;18.70;1.00;;;;;;5052644;28;20029;-59
2022/04/30 02:00:57;;;;;;;11.00;9.75;;;18.70;1.00;;;;;;5052593;28;20086;-59
2022/04/30 02:03:23;;;;;;;14.05;10.40;;;18.70;1.00;;;;;;5052045;28;20036;-59
2022/04/30 02:05:49;;;;;;;11.20;10.05;;;18.70;1.00;;;;;;5053829;28;20029;-59
2022/04/30 02:08:18;;;;;;;13.88;10.80;;;18.80;1.00;;;;;;5053239;28;20474;-59
2022/04/30 02:10:46;;;;;;;14.27;10.30;;;18.70;1.00;;;;;;5053272;28;20029;-59
2022/04/30 02:13:13;;;;;;;13.15;9.77;;;18.70;1.00;;;;;;5053303;28;20029;-59
2022/04/30 02:15:41;;;;;;;14.00;10.20;;;18.60;1.00;;;;;;5045625;28;20025;-59
2022/04/30 02:18:12;;;;;;;10.65;9.55;;;18.60;1.00;;;;;;5045996;28;20067;-58
2022/04/30 02:20:42;;;;;;;15.07;10.52;;;18.40;1.00;;;;;;5054261;28;20027;-57
2022/04/30 02:23:09;;;;;;;11.02;9.85;;;18.40;1.00;;;;;;5051811;28;20116;-58
2022/04/30 02:25:36;;;;;;;13.52;9.70;;;18.50;1.00;;;;;;5067671;28;20029;-58
2022/04/30 02:28:05;;;;;;;13.13;10.30;;;18.50;1.00;;;;;;5044982;28;20392;-58
2022/04/30 02:30:38;;;;;;;12.15;10.20;;;18.40;1.00;;;;;;5053810;28;20033;-58
2022/04/30 02:33:08;;;;;;;13.40;10.35;;;18.40;1.00;;;;;;5051099;28;20062;-58
2022/04/30 02:35:35;;;;;;;15.02;9.82;;;18.50;1.00;;;;;;5053911;28;20082;-58
2022/04/30 02:38:03;;;;;;;12.65;9.38;;;18.50;1.00;;;;;;5052597;28;20029;-58
2022/04/30 02:40:30;;;;;;;11.68;9.23;;;18.50;1.00;;;;;;5053800;28;20032;-58
2022/04/30 02:43:06;;;;;;;10.25;9.00;;;18.50;1.00;;;;;;5052380;28;20491;-58
2022/04/30 02:45:33;;;;;;;12.18;8.98;;;18.60;1.00;;;;;;5053600;28;20029;-57
2022/04/30 02:47:59;;;;;;;10.73;9.63;;;18.60;1.00;;;;;;5052254;28;20067;-58
2022/04/30 02:50:25;;;;;;;11.35;9.00;;;18.50;1.00;;;;;;5053479;28;20044;-58
2022/04/30 02:52:55;;;;;;;13.23;9.93;;;18.50;1.00;;;;;;5052337;28;20021;-57
2022/04/30 02:55:21;;;;;;;14.15;9.88;;;18.50;1.00;;;;;;5053341;28;20029;-58
2022/04/30 03:00:39;;;;;;;14.88;9.55;;;18.50;1.00;;;;;;5053167;28;20124;-58
2022/04/30 03:03:09;;;;;;;10.63;9.50;;;18.50;1.00;;;;;;5041529;28;20043;-58
2022/04/30 03:05:42;;;;;;;16.10;10.77;;;18.50;1.00;;;;;;5033221;28;20014;-58
2022/04/30 03:08:19;;;;;;;13.48;9.55;;;18.40;1.00;;;;;;5043171;28;20016;-58
2022/04/30 03:10:46;;;;;;;14.27;10.30;;;18.40;1.00;;;;;;5053569;28;20040;-59
2022/04/30 03:13:13;;;;;;;13.32;9.63;;;18.30;1.00;;;;;;5051484;28;20029;-59
2022/04/30 03:15:43;;;;;;;11.70;9.27;;;18.40;1.00;;;;;;5052984;28;20043;-59
2022/04/30 03:23:39;;;;;;;13.30;9.30;;;18.30;1.00;;;;;;5052209;28;20047;-59
2022/04/30 03:26:08;;;;;;;12.90;9.85;;;18.20;1.00;;;;;;5052908;28;20025;-58
2022/04/30 03:28:34;;;;;;;12.88;10.23;;;18.20;1.00;;;;;;5050979;28;20055;-59
2022/04/30 03:31:01;;;;;;;10.45;9.43;;;18.20;1.00;;;;;;5068172;28;20025;-59
2022/04/30 03:33:26;;;;;;;12.70;9.57;;;18.20;1.00;;;;;;5058283;28;20090;-59
2022/04/30 03:35:54;;;;;;;12.43;9.45;;;18.20;1.00;;;;;;5052736;28;20033;-59
2022/04/30 03:38:20;;;;;;;12.63;9.88;;;18.20;1.00;;;;;;5050053;28;20053;-59
2022/04/30 03:40:46;;;;;;;11.10;9.35;;;18.20;1.00;;;;;;5031496;28;20030;-59
2022/04/30 03:43:12;;;;;;;14.50;9.63;;;18.20;1.00;;;;;;5049334;28;20056;-59
2022/04/30 03:45:38;;;;;;;14.43;9.70;;;18.20;1.00;;;;;;5052560;28;20021;-59
2022/04/30 03:48:04;;;;;;;11.52;9.27;;;18.20;1.00;;;;;;5051377;28;20047;-57
2022/04/30 03:50:30;;;;;;;11.30;9.73;;;18.10;1.00;;;;;;5052167;28;20075;-58
2022/04/30 03:52:56;;;;;;;12.40;9.80;;;18.10;1.00;;;;;;5050023;28;20036;-58
2022/04/30 03:55:22;;;;;;;15.23;10.00;;;18.10;1.00;;;;;;5052207;28;20055;-58
2022/04/30 03:57:48;;;;;;;11.85;9.48;;;18.00;1.00;;;;;;5050457;28;20055;-58
2022/04/30 04:00:14;;;;;;;13.00;10.13;;;18.00;1.00;;;;;;5052313;28;20029;-58
2022/04/30 04:02:41;;;;;;;15.02;10.15;;;18.00;1.00;;;;;;5051347;28;20025;-58
2022/04/30 04:05:09;;;;;;;12.70;9.80;;;17.90;1.00;;;;;;5052725;28;20130;-58
2022/04/30 04:07:34;;;;;;;15.52;9.82;;;18.00;1.00;;;;;;5051203;28;20378;-57
2022/04/30 04:10:00;;;;;;;11.65;9.68;;;17.90;1.00;;;;;;5052175;28;20040;-58
2022/04/30 04:12:26;;;;;;;13.85;9.68;;;18.00;1.00;;;;;;5050884;28;20033;-57
2022/04/30 04:17:38;;;;;;;13.52;10.77;;;18.00;1.00;;;;;;5050271;28;20114;-58
2022/04/30 04:20:14;;;;;;;14.35;9.38;;;17.90;1.00;;;;;;5051406;28;20021;-58
2022/04/30 04:22:40;;;;;;;16.20;9.60;;;17.90;1.00;;;;;;5051169;28;20111;-58
2022/04/30 04:27:57;;;;;;;14.00;10.38;;;17.90;1.00;;;;;;5051079;28;20060;-58
2022/04/30 04:30:25;;;;;;;10.50;9.05;;;17.90;1.00;;;;;;5050294;28;20036;-58
2022/04/30 04:32:51;;;;;;;12.98;9.50;;;17.90;1.00;;;;;;5052081;28;20466;-58
2022/04/30 04:35:17;;;;;;;14.15;10.30;;;17.90;1.00;;;;;;5055147;28;20114;-58
2022/04/30 04:37:43;;;;;;;12.48;9.80;;;17.90;1.00;;;;;;5055206;28;20029;-58
2022/04/30 04:40:11;;;;;;;13.02;10.40;;;17.90;1.00;;;;;;5055231;28;20036;-58
2022/04/30 04:42:37;;;;;;;13.45;9.90;;;17.80;1.00;;;;;;5054333;28;20429;-58
2022/04/30 04:45:04;;;;;;;13.73;9.73;;;17.90;1.00;;;;;;5055398;28;20032;-58
2022/04/30 04:47:30;;;;;;;11.35;9.35;;;17.90;1.00;;;;;;5055289;28;20048;-56
2022/04/30 04:49:56;;;;;;;11.10;9.45;;;17.80;1.00;;;;;;5068422;28;20471;-58
2022/04/30 04:52:22;;;;;;;13.77;9.80;;;17.90;1.00;;;;;;5054908;28;20187;-59
2022/04/30 04:54:48;;;;;;;11.23;8.90;;;17.90;1.00;;;;;;5053648;28;20025;-59
2022/04/30 04:57:14;;;;;;;12.93;10.20;;;18.00;1.00;;;;;;5055700;28;20036;-58
2022/04/30 04:59:40;;;;;;;12.70;9.98;;;17.90;1.00;;;;;;5054878;28;20115;-58
2022/04/30 05:02:06;;;;;;;14.32;9.35;;;18.00;1.00;;;;;;5055424;28;20462;-59
2022/04/30 05:04:32;;;;;;;15.15;9.80;;;18.00;1.00;;;;;;5035691;28;20056;-59
2022/04/30 05:06:59;;;;;;;14.05;10.32;;;18.00;1.00;;;;;;5055411;28;20025;-57
2022/04/30 05:09:46;;;;;;;14.95;10.10;;;18.00;1.00;;;;;;5044302;28;20045;-59
2022/04/30 05:12:13;;;;;;;10.75;8.85;;;18.00;1.00;;;;;;5054314;28;20517;-58
2022/04/30 05:14:38;;;;;;;12.50;9.75;;;18.00;1.00;;;;;;5053105;28;20021;-58
2022/04/30 05:17:05;;;;;;;11.48;9.82;;;18.00;1.00;;;;;;5070461;28;20388;-58
2022/04/30 05:19:32;;;;;;;13.98;9.77;;;18.00;1.00;;;;;;5052318;28;20482;-59
2022/04/30 05:21:57;;;;;;;12.25;9.93;;;18.10;1.00;;;;;;5055249;28;20498;-59
2022/04/30 05:24:23;;;;;;;11.55;9.05;;;18.10;1.00;;;;;;5054041;28;20021;-59
2022/04/30 05:26:49;;;;;;;12.35;9.50;;;18.10;1.00;;;;;;5055162;28;20075;-59
2022/04/30 05:29:15;;;;;;;12.50;9.48;;;18.10;1.00;;;;;;5069430;28;20174;-58
2022/04/30 05:31:41;;;;;;;9.93;8.85;;;18.20;1.00;;;;;;5055128;28;20060;-58
2022/04/30 05:34:07;;;;;;;12.55;9.85;;;18.10;1.00;;;;;;5054010;28;20040;-59
2022/04/30 05:36:33;;;;;;;12.10;8.98;;;18.10;1.00;;;;;;5055018;28;20025;-59
2022/04/30 05:38:59;;;;;;;12.63;9.68;;;18.20;1.00;;;;;;5054371;28;20485;-58
2022/04/30 05:41:26;;;;;;;13.30;9.07;;;18.10;1.00;;;;;;5055165;28;20104;-59
2022/04/30 05:43:51;;;;;;;12.63;8.57;;;18.20;1.00;;;;;;5053576;28;20135;-58
2022/04/30 05:46:17;;;;;;;12.27;9.73;;;18.20;1.00;;;;;;5054731;28;20548;-59
2022/04/30 05:48:43;;;;;;;9.90;8.82;;;18.30;1.00;;;;;;5052912;28;20135;-58
2022/04/30 05:51:08;;;;;;;13.18;8.90;;;18.30;1.00;;;;;;5054776;28;20090;-59
2022/04/30 05:53:34;;;;;;;13.77;9.38;;;18.30;1.00;;;;;;5053875;28;20104;-58
2022/04/30 05:56:00;;;;;;;11.38;9.32;;;18.40;1.00;;;;;;5054267;28;20406;-58
2022/04/30 05:58:25;;;;;;;13.48;9.43;;;18.40;1.00;;;;;;5054493;28;20021;-58
2022/04/30 06:00:51;;;;;;;12.25;9.30;;;18.40;1.00;;;;;;5053486;28;20443;-58
2022/04/30 06:03:16;;;;;;;13.25;9.45;;;18.30;1.00;;;;;;5053789;28;20028;-58
2022/04/30 06:05:42;;;;;;;11.00;8.50;;;18.40;1.00;;;;;;5053836;28;20057;-59
2022/04/30 06:08:08;;;;;;;12.07;9.35;;;18.50;1.00;;;;;;5053788;28;20095;-58
2022/04/30 06:10:34;;;;;;;10.50;8.80;;;18.50;1.00;;;;;;5053324;28;20037;-59
2022/04/30 06:12:59;;;;;;;15.52;9.45;;;18.50;1.00;;;;;;5054445;28;20013;-58
2022/04/30 06:15:25;;;;;;;12.35;10.07;;;18.50;1.00;;;;;;5037565;28;20037;-59
2022/04/30 06:17:51;;;;;;;11.05;8.85;;;18.60;1.00;;;;;;5041197;28;20076;-57
2022/04/30 06:20:17;;;;;;;13.07;9.05;;;18.60;1.00;;;;;;5035984;28;20033;-58
2022/04/30 06:22:43;;;;;;;14.75;9.93;;;18.60;1.00;;;;;;5044734;28;20502;-58
2022/04/30 06:25:10;;;;;;;16.20;10.02;;;18.60;1.00;;;;;;5064513;28;20508;-59
2022/04/30 06:27:36;;;;;;;11.32;9.27;;;18.60;1.00;;;;;;5032952;28;20029;-59
2022/04/30 06:30:02;;;;;;;18.27;10.00;;;18.70;1.00;;;;;;5038067;28;20048;-59
2022/04/30 06:33:23;;;;;;;14.48;9.20;;;18.60;1.00;;;;;;5033091;28;20156;-59
2022/04/30 06:35:49;;;;;;;14.80;9.77;;;18.60;1.00;;;;;;5050972;28;20060;-58
2022/04/30 06:38:15;;;;;;;13.35;9.38;;;18.60;1.00;;;;;;5044876;28;20517;-58
2022/04/30 06:40:41;;;;;;;15.02;9.70;;;18.60;1.00;;;;;;5048688;28;20098;-58
2022/04/30 06:43:51;;;;;;;15.27;10.40;;;18.70;1.00;;;;;;5053085;28;20486;-58
2022/04/30 06:46:19;;;;;;;14.80;9.73;;;18.70;1.00;;;;;;5051784;28;20124;-58
2022/04/30 06:48:45;;;;;;;12.68;9.40;;;18.70;1.00;;;;;;5052622;28;20047;-59
2022/04/30 06:51:12;;;;;;;15.73;9.93;;;18.80;1.00;;;;;;5052249;28;20336;-58
2022/04/30 06:59:10;;;;;;;14.23;9.68;;;18.90;1.00;;;;;;5052829;28;20036;-58
2022/04/30 07:04:24;;;;;;;13.18;9.88;;;18.80;1.00;;;;;;5052618;28;20809;-59
2022/04/30 07:06:51;;;;;;;14.90;10.43;;;18.90;1.00;;;;;;5053118;28;20049;-59
2022/04/30 07:09:16;;;;;;;12.75;10.70;;;18.90;1.00;;;;;;5051637;28;20029;-58
2022/04/30 07:11:42;;;;;;;17.98;12.57;;;19.00;1.00;;;;;;5068487;28;20035;-59
2022/04/30 07:14:08;;;;;;;16.17;11.15;;;19.00;1.00;;;;;;5050503;28;20055;-59
2022/04/30 07:16:34;;;;;;;17.67;12.27;;;19.00;1.00;;;;;;5047570;28;20471;-58
2022/04/30 07:19:01;;;;;;;14.82;10.73;;;19.10;1.00;;;;;;5032580;28;20032;-58
2022/04/30 07:21:28;;;;;;;16.33;11.35;;;19.20;1.00;;;;;;5050744;28;20021;-59
2022/04/30 07:23:54;;;;;;;14.02;10.73;;;19.20;1.00;;;;;;5053074;28;20039;-59
2022/04/30 07:26:20;;;;;;;16.90;11.05;;;19.30;1.00;;;;;;5051839;28;20032;-59
2022/04/30 07:28:46;;;;;;;14.32;10.75;;;19.40;1.00;;;;;;5052178;28;20363;-59
2022/04/30 07:31:12;;;;;;;14.25;9.70;;;19.40;1.00;;;;;;5051645;28;20033;-58
2022/04/30 07:33:38;;;;;;;15.48;10.73;;;19.40;1.00;;;;;;5052731;28;20127;-59
2022/04/30 07:36:04;;;;;;;13.75;10.35;;;19.50;1.00;;;;;;5051897;28;20467;-58
2022/04/30 07:38:30;;;;;;;16.45;10.00;;;19.60;1.00;;;;;;5067829;28;20025;-58
2022/04/30 07:40:56;;;;;;;16.23;10.52;;;19.60;1.00;;;;;;5051827;28;20029;-59
2022/04/30 07:43:21;;;;;;;17.25;9.95;;;19.60;1.00;;;;;;5051916;28;20138;-59
2022/04/30 07:45:47;;;;;;;12.65;9.60;;;19.70;1.00;;;;;;5050647;28;20098;-59
2022/04/30 07:48:13;;;;;;;18.27;10.15;;;19.70;1.00;;;;;;5052476;28;20029;-59
2022/04/30 07:50:38;;;;;;;15.63;10.68;;;19.60;1.00;;;;;;5051486;28;20044;-58
2022/04/30 07:53:06;;;;;;;12.48;10.00;;;19.70;1.00;;;;;;5052142;28;20052;-57
2022/04/30 07:55:32;;;;;;;14.23;10.80;;;19.70;1.00;;;;;;5051722;28;20040;-58
2022/04/30 07:57:58;;;;;;;14.80;9.82;;;19.60;1.00;;;;;;5052701;28;20036;-58
2022/04/30 08:00:25;;;;;;;13.80;10.27;;;19.60;1.00;;;;;;5051633;28;20111;-58
2022/04/30 08:02:50;;;;;;;17.52;10.32;;;19.60;1.00;;;;;;5052262;28;20040;-57
2022/04/30 08:05:16;;;;;;;13.70;10.23;;;19.70;1.00;;;;;;5051673;28;20037;-59
2022/04/30 08:07:42;;;;;;;12.75;9.50;;;19.80;1.00;;;;;;5051227;28;20110;-59
2022/04/30 08:10:08;;;;;;;16.17;9.90;;;19.80;1.00;;;;;;5051197;28;20033;-59
2022/04/30 08:12:34;;;;;;;16.75;11.20;;;19.80;1.00;;;;;;5050580;28;20032;-58
2022/04/30 08:14:59;;;;;;;13.43;10.00;;;19.90;1.00;;;;;;5051721;28;20025;-59
2022/04/30 08:17:27;;;;;;;13.80;9.52;;;20.00;1.00;;;;;;5052010;28;20025;-60
2022/04/30 08:19:53;;;;;;;14.02;10.02;;;20.00;1.00;;;;;;5051213;28;20036;-59
2022/04/30 08:22:19;;;;;;;15.15;10.35;;;20.00;1.00;;;;;;5052210;28;20035;-58
2022/04/30 08:24:45;;;;;;;14.93;10.80;;;20.00;1.00;;;;;;5051279;28;20029;-58
2022/04/30 08:27:11;;;;;;;14.95;10.70;;;19.90;1.00;;;;;;5050766;28;20030;-58
2022/04/30 08:29:37;;;;;;;16.08;10.88;;;20.00;1.00;;;;;;5050702;28;20127;-57
2022/04/30 08:32:03;;;;;;;15.65;10.85;;;20.10;1.00;;;;;;5051948;28;20052;-58
2022/04/30 08:34:29;;;;;;;16.92;10.35;;;20.10;1.00;;;;;;5051663;28;20382;-58
2022/04/30 08:36:55;;;;;;;12.63;9.63;;;20.10;1.00;;;;;;5052068;28;20025;-58
2022/04/30 08:39:21;;;;;;;14.88;10.25;;;20.10;1.00;;;;;;5051909;28;20039;-59
2022/04/30 08:41:47;;;;;;;13.80;10.35;;;20.10;1.00;;;;;;5049845;28;20029;-57
2022/04/30 08:44:17;;;;;;;16.27;9.38;;;20.10;1.00;;;;;;5051898;28;20055;-58
2022/04/30 08:46:44;;;;;;;12.23;9.35;;;20.10;1.00;;;;;;5050864;28;20025;-58
2022/04/30 08:49:10;;;;;;;13.85;9.45;;;20.00;1.00;;;;;;5051859;28;20036;-57
2022/04/30 08:51:40;;;;;;;10.73;9.05;;;20.00;1.00;;;;;;5050663;28;20032;-58
2022/04/30 08:54:06;;;;;;;14.88;10.55;;;20.00;1.00;;;;;;5050229;28;20025;-58
2022/04/30 08:56:35;;;;;;;12.00;8.40;;;19.90;1.00;;;;;;5050963;28;20482;-59
2022/04/30 08:59:03;;;;;;;12.95;8.20;;;19.90;1.00;;;;;;5052034;28;20032;-52
2022/04/30 09:01:29;;;;;;;11.38;7.57;;;19.90;1.00;;;;;;5050936;28;20032;-55
2022/04/30 09:03:56;;;;;;;10.98;6.18;;;19.90;1.00;;;;;;5051789;28;20083;-55
2022/04/30 09:06:22;;;;;;;13.00;7.15;;;20.10;1.00;;;;;;5051085;28;20086;-56
2022/04/30 09:08:52;;;;;;;9.30;7.25;;;20.20;1.00;;;;;;5050733;28;20048;-53
2022/04/30 09:11:26;;;;;;;10.32;8.55;;;20.40;1.00;;;;;;5050839;28;20142;-50
2022/04/30 09:13:53;;;;;;;7.35;5.63;;;20.60;1.00;;;;;;5050734;28;20116;-54
2022/04/30 09:16:23;;;;;;;8.52;5.28;;;20.70;1.00;;;;;;5050748;28;20044;-55
2022/04/30 09:18:50;;;;;;;10.18;7.03;;;20.70;1.00;;;;;;5051568;28;20032;-55
2022/04/30 09:21:17;;;;;;;11.18;8.38;;;20.80;1.00;;;;;;5054336;28;20104;-55
2022/04/30 09:23:44;;;;;;;13.52;8.25;;;20.90;1.00;;;;;;5054933;28;20123;-52
2022/04/30 09:26:10;;;;;;;15.05;9.05;;;21.00;1.00;;;;;;5053123;28;20036;-54
2022/04/30 09:28:38;;;;;;;14.40;9.50;;;21.10;1.00;;;;;;5055199;28;20036;-49
2022/04/30 09:31:13;;;;;;;12.27;8.80;;;21.10;1.00;;;;;;5053290;28;20029;-50
2022/04/30 09:33:43;;;;;;;;;;;21.10;1.00;;;;;;5037839;28;20022;-51
2022/04/30 09:38:53;;;;;;;14.07;9.00;;;21.10;1.00;;;;;;5055341;28;20410;-49
2022/04/30 09:41:28;;;;;;;12.20;9.48;;;21.20;1.00;;;;;;5040541;28;20486;-50
2022/04/30 09:44:09;;;;;;;12.15;8.15;;;21.30;1.00;;;;;;5064608;28;20041;-49
2022/04/30 09:46:38;;;;;;;14.18;8.45;;;21.40;1.00;;;;;;5052767;28;20060;-55
2022/04/30 09:54:36;;;;;;;10.15;7.75;;;21.50;1.00;;;;;;5054573;28;20059;-52
2022/04/30 09:57:04;;;;;;;11.10;8.18;;;21.40;1.00;;;;;;5053357;28;20497;-55
2022/04/30 09:59:33;;;;;;;10.73;6.53;;;21.50;1.00;;;;;;5054363;28;20032;-56
2022/04/30 10:02:03;;;;;;;9.93;6.22;;;21.50;1.00;;;;;;5052260;28;20029;-55
2022/04/30 10:04:30;;;;;;;8.98;6.93;;;21.40;1.00;;;;;;5053944;28;20029;-55
2022/04/30 10:07:00;;;;;;;12.88;9.00;;;21.50;1.00;;;;;;5053381;28;20493;-57
2022/04/30 10:09:55;;;;;;;10.90;8.38;;;21.50;1.00;;;;;;5054412;28;20033;-56
2022/04/30 10:12:25;;;;;;;13.93;8.50;;;21.50;1.00;;;;;;5053536;28;20079;-57
2022/04/30 10:15:10;;;;;;;8.93;7.20;;;21.60;1.00;;;;;;5053522;28;20017;-55
2022/04/30 10:17:39;;;;;;;;;;;21.60;1.00;;;;;;5034692;28;20086;-54
2022/04/30 10:20:14;;;;;;;8.82;6.38;;;21.50;1.00;;;;;;5039501;28;20015;-55
2022/04/30 10:22:53;;;;;;;7.80;7.00;;;21.50;1.00;;;;;;5034343;28;20061;-55
2022/04/30 10:25:46;;;;;;;12.45;7.40;;;21.50;1.00;;;;;;5035316;28;20030;-55
2022/04/30 10:28:17;;;;;;;9.25;6.15;;;21.50;1.00;;;;;;5051247;28;20049;-55
2022/04/30 10:30:58;;;;;;;7.47;6.07;;;21.70;1.00;;;;;;5050681;28;20037;-54
2022/04/30 10:33:25;;;;;;;12.02;7.18;;;21.70;1.00;;;;;;5053717;28;20017;-56
2022/04/30 10:36:02;;;;;;;22.17;8.80;;;21.80;1.00;;;;;;5052885;28;20028;-55
2022/04/30 10:38:27;;;;;;;12.82;7.60;;;22.00;1.00;;;;;;5053732;28;20028;-56
2022/04/30 10:40:57;;;;;;;16.13;6.93;;;22.10;1.00;;;;;;5052752;28;20024;-56
2022/04/30 10:43:32;;;;;;;10.13;6.20;;;22.20;1.00;;;;;;5053311;28;20506;-53
2022/04/30 10:45:58;;;;;;;8.75;6.40;;;22.30;1.00;;;;;;5048557;28;20072;-56
2022/04/30 10:48:25;;;;;;;7.65;6.30;;;22.20;1.00;;;;;;5052152;28;20029;-56
2022/04/30 10:51:05;;;;;;;13.85;10.07;;;22.20;1.00;;;;;;5052284;28;20406;-56
2022/04/30 10:53:32;;;;;;;11.77;8.35;;;22.20;1.00;;;;;;5052476;28;20028;-56
2022/04/30 10:55:59;;;;;;;11.77;9.32;;;22.30;1.00;;;;;;5052447;28;20078;-55
2022/04/30 10:58:26;;;;;;;12.23;10.07;;;22.40;1.00;;;;;;5060849;28;20385;-58
2022/04/30 11:00:52;;;;;;;11.82;8.90;;;22.50;1.00;;;;;;5049514;28;20017;-56
2022/04/30 11:03:24;;;;;;;13.93;9.35;;;22.70;1.00;;;;;;5067560;28;20043;-56
2022/04/30 11:05:50;;;;;;;12.15;8.35;;;22.60;1.00;;;;;;5051720;28;20386;-54
2022/04/30 11:08:15;;;;;;;11.68;8.63;;;22.70;1.00;;;;;;5052128;28;20060;-55
2022/04/30 11:10:52;;;;;;;21.23;11.05;;;22.70;1.00;;;;;;5051812;28;20039;-56
2022/04/30 11:13:19;;;;;;;11.95;8.20;;;22.80;1.00;;;;;;5051357;28;20099;-55
2022/04/30 11:15:45;;;;;;;12.05;8.20;;;23.00;1.00;;;;;;5051437;28;20033;-53
2022/04/30 11:18:11;;;;;;;10.15;7.90;;;23.10;1.00;;;;;;5052401;28;20025;-57
2022/04/30 11:20:36;;;;;;;14.43;8.85;;;23.20;1.00;;;;;;5051787;28;20187;-57
2022/04/30 11:23:02;;;;;;;8.98;7.00;;;23.10;1.00;;;;;;5052335;28;20072;-57
2022/04/30 11:25:39;;;;;;;11.55;8.18;;;23.10;1.00;;;;;;5051254;28;20067;-56
2022/04/30 11:28:09;;;;;;;9.95;8.50;;;23.10;1.00;;;;;;5041530;28;20211;-55
2022/04/30 11:30:39;;;;;;;15.77;10.80;;;23.20;1.00;;;;;;5066213;28;20029;-55
2022/04/30 11:33:06;;;;;;;20.38;14.45;;;23.40;1.00;;;;;;5051634;28;20033;-56
2022/04/30 11:35:31;;;;;;;9.23;7.68;;;23.70;1.00;;;;;;5051636;28;20052;-56
2022/04/30 11:37:57;;;;;;;9.23;7.63;;;23.90;1.00;;;;;;5051005;28;20052;-55
2022/04/30 11:40:24;;;;;;;8.02;6.22;;;23.80;1.00;;;;;;5052257;28;20029;-56
2022/04/30 11:43:02;;;;;;;10.75;9.50;;;23.80;1.00;;;;;;5050245;28;20065;-56
2022/04/30 11:45:32;;;;;;;14.48;8.68;;;23.80;1.00;;;;;;5051964;28;20211;-56
2022/04/30 11:47:59;;;;;;;12.80;8.55;;;23.90;1.00;;;;;;5050362;28;20112;-54
2022/04/30 11:50:26;;;;;;;8.18;7.22;;;23.80;1.00;;;;;;5051059;28;20036;-57
2022/04/30 11:52:52;;;;;;;10.13;7.10;;;23.70;1.00;;;;;;5048834;28;20028;-53
2022/04/30 11:55:22;;;;;;;7.57;6.55;;;24.70;1.00;;;;;;5049840;28;20032;-55
2022/04/30 11:57:48;;;;;;;8.57;5.93;;;25.10;1.00;;;;;;5048223;28;20028;-53
2022/04/30 12:00:19;;;;;;;6.28;5.18;;;26.90;1.00;;;;;;5050650;28;20025;-55
2022/04/30 12:02:49;;;;;;;7.93;7.03;;;27.30;1.00;;;;;;5050093;28;20060;-56
2022/04/30 12:05:15;;;;;;;6.90;4.88;;;27.50;1.00;;;;;;5051100;28;20040;-56
2022/04/30 12:07:46;;;;;;;12.60;6.53;;;29.10;1.00;;;;;;5050069;28;20044;-55
2022/04/30 12:10:15;;;;;;;17.40;7.60;;;29.60;1.00;;;;;;5066927;28;20040;-58
2022/04/30 12:12:41;;;;;;;10.68;6.43;;;28.60;1.00;;;;;;5050424;28;20433;-57
2022/04/30 12:26:58;;;;;;;6.60;5.97;;;30.10;1.00;;;;;;5050665;28;20086;-56
2022/04/30 12:29:24;;;;;;;7.70;5.70;;;31.10;1.00;;;;;;5062751;28;20036;-55
2022/04/30 12:31:51;;;;;;;5.13;4.72;;;29.50;1.00;;;;;;5072191;28;20101;-54
2022/04/30 12:34:21;;;;;;;5.80;5.30;;;28.50;1.00;;;;;;5055171;28;20032;-55
2022/04/30 12:36:57;;;;;;;6.03;5.53;;;28.40;1.00;;;;;;5051693;28;20029;-56
2022/04/30 12:39:24;;;;;;;6.75;5.47;;;28.70;1.00;;;;;;5051126;28;20041;-55
2022/04/30 12:41:54;;;;;;;6.22;5.68;;;29.10;1.00;;;;;;5066792;28;20115;-57
2022/04/30 12:44:20;;;;;;;5.95;4.97;;;29.20;1.00;;;;;;5051096;28;20075;-56
2022/04/30 12:46:47;;;;;;;9.27;6.72;;;29.90;1.00;;;;;;5051599;28;20033;-56
2022/04/30 12:49:14;;;;;;;5.78;4.95;;;30.10;1.00;;;;;;5050762;28;20394;-56
2022/04/30 12:51:41;;;;;;;7.00;5.20;;;30.80;1.00;;;;;;5050808;28;20074;-55
2022/04/30 12:54:16;;;;;;;5.80;5.10;;;31.00;1.00;;;;;;5051514;28;20037;-56
2022/04/30 12:56:43;;;;;;;5.30;4.95;;;30.60;1.00;;;;;;5055619;28;20461;-57
2022/04/30 12:59:10;;;;;;;7.22;6.00;;;31.40;1.00;;;;;;5054680;28;20108;-58
2022/04/30 13:01:37;;;;;;;6.30;5.65;;;31.90;1.00;;;;;;5055828;28;20021;-57
2022/04/30 13:04:03;;;;;;;8.15;5.88;;;31.90;1.00;;;;;;5054793;28;20033;-57
2022/04/30 13:06:30;;;;;;;5.38;4.97;;;32.10;1.00;;;;;;5055493;28;20028;-57
2022/04/30 13:14:25;;;;;;;6.68;5.47;;;33.10;1.00;;;;;;5054064;28;20036;-57
2022/04/30 13:16:51;;;;;;;5.07;4.57;;;35.60;1.00;;;;;;5055107;28;20025;-57
2022/04/30 13:19:17;;;;;;;5.88;5.38;;;37.60;1.00;;;;;;5054408;28;20057;-58
2022/04/30 13:21:46;;;;;;;5.93;5.43;;;37.70;1.00;;;;;;5054330;28;20029;-57
2022/04/30 13:24:14;;;;;;;5.60;5.05;;;39.00;1.00;;;;;;5054176;28;20056;-56
2022/04/30 13:26:40;;;;;;;6.07;5.50;;;39.50;1.00;;;;;;5055114;28;20025;-57
2022/04/30 13:29:07;;;;;;;5.80;5.05;;;41.20;1.00;;;;;;5054234;28;20128;-57
2022/04/30 13:31:32;;;;;;;5.90;5.13;;;39.90;1.00;;;;;;5054804;28;20028;-57
2022/04/30 13:33:58;;;;;;;5.47;4.90;;;37.90;1.00;;;;;;5054222;28;20029;-58
2022/04/30 13:36:25;;;;;;;5.13;4.63;;;33.70;1.00;;;;;;5054020;28;20033;-57
2022/04/30 13:38:50;;;;;;;4.75;4.35;;;31.30;1.00;;;;;;5054067;28;20057;-57
2022/04/30 13:41:16;;;;;;;5.50;4.90;;;30.30;1.00;;;;;;5055100;28;20036;-57
2022/04/30 13:43:42;;;;;;;6.60;4.72;;;29.90;1.00;;;;;;5053915;28;20098;-57
2022/04/30 13:46:08;;;;;;;5.40;4.35;;;28.70;1.00;;;;;;5058291;28;20024;-58